createdAt,value
2023-02-23T00:02:31.351Z,90.50
2023-02-23T00:05:08.193Z,81.60
2023-02-23T00:07:47.973Z,87.20
2023-02-23T00:10:30.427Z,92.60
2023-02-23T00:13:08.538Z,88.60
2023-02-23T00:15:46.263Z,89.30
2023-02-23T00:18:24.643Z,87.20
2023-02-23T00:21:04.530Z,92.10
2023-02-23T00:23:41.187Z,92.80
2023-02-23T00:26:20.916Z,92.50
2023-02-23T00:28:58.264Z,83.60
2023-02-23T00:34:27.848Z,81.10
2023-02-23T00:37:05.663Z,65.80
2023-02-23T00:39:42.058Z,70.70
2023-02-23T00:42:19.000Z,90.90
2023-02-23T00:44:56.582Z,88.80
2023-02-23T00:47:32.479Z,87.50
2023-02-23T00:50:15.678Z,87.70
2023-02-23T00:52:52.141Z,86.70
2023-02-23T00:55:28.563Z,82.80
2023-02-23T00:58:05.904Z,83.60
2023-02-23T01:00:45.061Z,82.00
2023-02-23T01:03:21.320Z,79.50
2023-02-23T01:06:04.924Z,81.20
2023-02-23T01:08:43.972Z,78.30
2023-02-23T01:11:24.176Z,78.80
2023-02-23T01:14:03.896Z,80.20
2023-02-23T01:16:41.527Z,77.20
2023-02-23T01:19:18.141Z,72.10
2023-02-23T01:21:55.062Z,71.40
2023-02-23T01:24:32.146Z,68.80
2023-02-23T01:27:09.251Z,75.50
2023-02-23T01:29:46.248Z,79.20
2023-02-23T01:32:25.017Z,83.10
2023-02-23T01:35:01.410Z,83.60
2023-02-23T01:37:43.896Z,84.80
2023-02-23T01:40:29.244Z,82.50
2023-02-23T01:43:26.441Z,84.30
2023-02-23T01:46:04.068Z,86.90
2023-02-23T01:48:44.667Z,87.00
2023-02-23T01:51:24.785Z,86.80
2023-02-23T01:54:11.085Z,83.00
2023-02-23T01:56:58.426Z,83.50
2023-02-23T01:59:41.697Z,81.70
2023-02-23T02:02:20.069Z,83.50
2023-02-23T02:04:58.669Z,85.10
2023-02-23T02:07:40.052Z,86.00
2023-02-23T02:10:45.097Z,78.90
2023-02-23T02:13:38.291Z,79.50
2023-02-23T02:16:51.317Z,78.80
2023-02-23T02:20:36.296Z,81.70
2023-02-23T02:23:49.946Z,91.00
2023-02-23T02:26:43.510Z,81.70
2023-02-23T02:30:02.569Z,84.70
2023-02-23T02:33:04.833Z,84.10
2023-02-23T02:36:20.630Z,85.60
2023-02-23T02:39:11.099Z,86.80
2023-02-23T02:41:55.322Z,91.70
2023-02-23T02:44:44.048Z,82.60
2023-02-23T02:47:31.360Z,84.20
2023-02-23T02:50:20.560Z,80.40
2023-02-23T02:53:06.567Z,87.30
2023-02-23T02:55:47.305Z,87.10
2023-02-23T02:58:26.073Z,90.00
2023-02-23T03:01:28.668Z,81.50
2023-02-23T03:04:38.405Z,83.30
2023-02-23T03:07:41.406Z,88.30
2023-02-23T03:10:44.867Z,89.80
2023-02-23T03:13:56.129Z,89.10
2023-02-23T03:17:02.298Z,87.10
2023-02-23T03:20:06.636Z,89.70
2023-02-23T03:23:12.640Z,85.20
2023-02-23T03:26:19.565Z,84.00
2023-02-23T03:29:28.238Z,90.00
2023-02-23T03:32:34.483Z,88.40
2023-02-23T03:35:35.781Z,89.40
2023-02-23T03:38:36.696Z,93.80
2023-02-23T03:41:35.711Z,101.60
2023-02-23T03:44:37.277Z,104.80
2023-02-23T03:47:32.847Z,93.10
2023-02-23T03:50:36.894Z,92.10
2023-02-23T03:53:34.035Z,100.60
2023-02-23T03:56:32.583Z,96.00
2023-02-23T03:59:30.409Z,93.90
2023-02-23T04:02:27.814Z,96.20
2023-02-23T04:05:24.722Z,92.30
2023-02-23T04:08:19.862Z,93.90
2023-02-23T04:11:23.069Z,96.40
2023-02-23T04:14:06.300Z,95.10
2023-02-23T04:16:42.982Z,96.70
2023-02-23T04:19:20.740Z,95.20
2023-02-23T04:21:57.761Z,82.00
2023-02-23T04:24:35.458Z,95.10
2023-02-23T04:27:13.008Z,98.00
2023-02-23T04:29:50.648Z,100.10
2023-02-23T04:32:27.987Z,99.70
2023-02-23T04:35:04.856Z,95.40
2023-02-23T04:37:41.814Z,94.80
2023-02-23T04:40:24.444Z,93.40
2023-02-23T04:43:00.850Z,94.50
2023-02-23T04:45:37.659Z,96.90
2023-02-23T04:48:14.715Z,95.00
2023-02-23T04:50:54.445Z,99.40
2023-02-23T04:53:31.068Z,99.00
2023-02-23T04:56:08.334Z,98.70
2023-02-23T04:58:45.964Z,106.20
2023-02-23T05:01:22.915Z,96.60
2023-02-23T05:04:00.471Z,98.90
2023-02-23T05:06:37.814Z,96.40
2023-02-23T05:09:15.232Z,101.90
2023-02-23T05:11:51.835Z,109.10
2023-02-23T05:14:29.673Z,103.40
2023-02-23T05:17:08.482Z,109.10
2023-02-23T05:19:45.585Z,97.50
2023-02-23T05:22:22.897Z,103.00
2023-02-23T05:24:59.471Z,100.50
2023-02-23T05:27:35.942Z,102.70
2023-02-23T05:30:17.989Z,104.70
2023-02-23T05:32:53.868Z,102.00
2023-02-23T05:35:30.714Z,107.80
2023-02-23T05:38:07.532Z,95.20
2023-02-23T05:40:44.109Z,106.20
2023-02-23T05:43:21.315Z,104.70
2023-02-23T05:45:58.358Z,103.30
2023-02-23T05:48:35.374Z,104.60
2023-02-23T05:51:14.394Z,103.70
2023-02-23T05:53:51.605Z,100.20
2023-02-23T05:56:27.902Z,107.50
2023-02-23T05:59:04.611Z,103.40
2023-02-23T06:01:42.036Z,100.30
2023-02-23T06:04:19.320Z,107.30
2023-02-23T06:06:58.245Z,97.60
2023-02-23T06:09:35.432Z,102.80
2023-02-23T06:12:13.761Z,107.00
2023-02-23T06:14:50.793Z,90.40
2023-02-23T06:17:27.167Z,96.70
2023-02-23T06:20:05.116Z,100.70
2023-02-23T06:22:42.492Z,98.90
2023-02-23T06:25:19.626Z,108.10
2023-02-23T06:27:57.508Z,108.10
2023-02-23T06:30:34.887Z,115.40
2023-02-23T06:33:11.788Z,104.40
2023-02-23T06:35:48.556Z,105.90
2023-02-23T06:38:26.618Z,113.00
2023-02-23T06:41:09.199Z,112.30
2023-02-23T06:43:46.600Z,106.40
2023-02-23T06:46:23.195Z,109.60
2023-02-23T06:49:02.672Z,105.20
2023-02-23T06:51:38.961Z,106.50
2023-02-23T06:54:16.358Z,110.30
2023-02-23T06:56:53.560Z,101.30
2023-02-23T06:59:30.736Z,109.80
2023-02-23T07:02:07.052Z,100.30
2023-02-23T07:04:45.306Z,96.80
2023-02-23T07:07:22.462Z,105.30
2023-02-23T07:10:00.022Z,103.00
2023-02-23T07:12:37.689Z,104.90
2023-02-23T07:15:20.617Z,104.80
2023-02-23T07:17:58.552Z,103.00
2023-02-23T07:20:36.064Z,109.90
2023-02-23T07:23:13.122Z,108.20
2023-02-23T07:25:50.904Z,104.40
2023-02-23T07:28:27.421Z,102.40
2023-02-23T07:31:05.485Z,106.60
2023-02-23T07:33:43.203Z,106.00
2023-02-23T07:36:20.579Z,104.40
2023-02-23T07:38:57.655Z,105.10
2023-02-23T07:41:36.278Z,109.20
2023-02-23T07:44:13.968Z,105.30
2023-02-23T07:46:50.765Z,110.60
2023-02-23T07:49:27.816Z,102.60
2023-02-23T07:52:04.543Z,109.00
2023-02-23T07:54:41.691Z,111.80
2023-02-23T07:57:20.044Z,110.20
2023-02-23T07:59:57.966Z,109.30
2023-02-23T08:02:33.890Z,111.70
2023-02-23T08:05:10.856Z,109.60
2023-02-23T08:07:47.679Z,105.10
2023-02-23T08:10:26.061Z,108.60
2023-02-23T08:13:03.010Z,108.40
2023-02-23T08:15:40.177Z,108.10
2023-02-23T08:18:16.776Z,100.20
2023-02-23T08:20:53.307Z,112.50
2023-02-23T08:23:31.370Z,116.10
2023-02-23T08:26:10.301Z,117.10
2023-02-23T08:28:47.822Z,113.50
2023-02-23T08:31:25.434Z,126.70
2023-02-23T08:34:01.641Z,116.90
2023-02-23T08:36:39.289Z,117.20
2023-02-23T08:39:15.889Z,107.30
2023-02-23T08:41:52.673Z,113.40
2023-02-23T08:44:31.208Z,123.10
2023-02-23T08:47:08.741Z,124.10
2023-02-23T08:49:45.329Z,121.60
2023-02-23T08:52:21.700Z,126.50
2023-02-23T08:54:58.565Z,125.70
2023-02-23T08:57:37.566Z,132.60
2023-02-23T09:00:23.421Z,134.20
2023-02-23T09:03:00.395Z,136.30
2023-02-23T09:05:40.128Z,134.30
2023-02-23T09:08:16.512Z,130.30
2023-02-23T09:10:54.210Z,132.20
2023-02-23T09:13:30.971Z,135.10
2023-02-23T09:16:10.359Z,129.20
2023-02-23T09:18:48.397Z,133.70
2023-02-23T09:21:26.820Z,133.00
2023-02-23T09:24:02.852Z,132.40
2023-02-23T09:26:40.232Z,140.20
2023-02-23T09:29:17.531Z,130.40
2023-02-23T09:31:56.716Z,132.40
2023-02-23T09:34:35.698Z,140.00
2023-02-23T09:37:14.212Z,128.20
2023-02-23T09:39:51.708Z,123.50
2023-02-23T09:42:55.479Z,130.50
2023-02-23T09:45:44.663Z,132.50
2023-02-23T09:48:28.270Z,130.70
2023-02-23T09:51:09.630Z,129.70
2023-02-23T09:53:53.547Z,134.80
2023-02-23T09:56:38.263Z,128.70
2023-02-23T09:59:20.686Z,130.80
2023-02-23T10:02:22.941Z,134.30
2023-02-23T10:05:05.792Z,123.80
2023-02-23T10:07:53.125Z,128.80
2023-02-23T10:10:46.834Z,125.40
2023-02-23T10:13:40.918Z,132.70
2023-02-23T10:16:26.267Z,135.30
2023-02-23T10:19:15.662Z,132.40
2023-02-23T10:21:59.382Z,128.30
2023-02-23T10:24:41.929Z,132.50
2023-02-23T10:27:26.560Z,136.90
2023-02-23T10:30:05.050Z,113.40
2023-02-23T10:32:50.371Z,123.40
2023-02-23T10:35:30.111Z,127.30
2023-02-23T10:38:08.372Z,118.40
2023-02-23T10:40:47.358Z,131.40
2023-02-23T10:43:24.624Z,135.20
2023-02-23T10:46:01.588Z,125.70
2023-02-23T10:48:43.277Z,130.00
2023-02-23T10:51:30.843Z,133.60
2023-02-23T10:54:52.213Z,133.60
2023-02-23T10:57:39.875Z,121.20
2023-02-23T11:00:34.293Z,123.70
2023-02-23T11:03:31.794Z,117.90
2023-02-23T11:06:10.380Z,130.10
2023-02-23T11:08:47.194Z,124.30
2023-02-23T11:11:33.234Z,127.10
2023-02-23T11:14:26.576Z,123.20
2023-02-23T11:17:05.767Z,119.40
2023-02-23T11:19:44.945Z,111.30
2023-02-23T11:22:27.230Z,116.80
2023-02-23T11:25:06.908Z,124.70
2023-02-23T11:27:48.409Z,115.70
2023-02-23T11:30:32.288Z,113.30
2023-02-23T11:33:18.334Z,113.10
2023-02-23T11:36:03.208Z,117.70
2023-02-23T11:38:40.845Z,131.40
2023-02-23T11:41:30.456Z,121.80
2023-02-23T11:44:08.307Z,113.20
2023-02-23T11:46:48.071Z,113.30
2023-02-23T11:49:29.756Z,113.60
2023-02-23T11:52:14.567Z,128.00
2023-02-23T11:54:59.980Z,118.00
2023-02-23T11:57:39.977Z,116.90
2023-02-23T12:00:31.742Z,128.30
2023-02-23T12:03:10.678Z,112.10
2023-02-23T12:05:58.010Z,120.00
2023-02-23T12:08:47.031Z,119.10
2023-02-23T12:11:30.787Z,120.20
2023-02-23T12:14:17.596Z,122.50
2023-02-23T12:17:00.018Z,120.90
2023-02-23T12:19:40.294Z,109.60
2023-02-23T12:22:23.558Z,119.00
2023-02-23T12:25:06.130Z,113.60
2023-02-23T12:27:50.878Z,122.60
2023-02-23T12:30:41.597Z,118.20
2023-02-23T12:33:25.663Z,122.20
2023-02-23T12:36:10.398Z,114.30
2023-02-23T12:39:01.372Z,125.50
2023-02-23T12:41:45.735Z,109.30
2023-02-23T12:44:40.527Z,117.20
2023-02-23T12:47:41.517Z,122.00
2023-02-23T12:50:29.062Z,111.70
2023-02-23T12:53:24.668Z,119.80
2023-02-23T12:56:25.327Z,97.90
2023-02-23T12:59:23.354Z,108.50
2023-02-23T13:02:05.555Z,112.40
2023-02-23T13:05:13.215Z,114.00
2023-02-23T13:08:13.622Z,110.50
2023-02-23T13:10:59.353Z,108.70
2023-02-23T13:13:50.090Z,113.20
2023-02-23T13:16:37.509Z,112.10
2023-02-23T13:19:26.365Z,104.50
2023-02-23T13:22:23.758Z,119.00
2023-02-23T13:25:05.304Z,114.80
2023-02-23T13:27:51.498Z,112.00
2023-02-23T13:30:29.652Z,107.60
2023-02-23T13:33:12.819Z,114.60
2023-02-23T13:35:49.812Z,110.20
2023-02-23T13:38:39.739Z,105.10
2023-02-23T13:41:34.143Z,111.40
2023-02-23T13:44:25.189Z,109.60
2023-02-23T13:47:18.124Z,107.10
2023-02-23T13:50:05.842Z,107.40
2023-02-23T13:52:46.843Z,110.70
2023-02-23T13:55:52.268Z,107.60
2023-02-23T13:58:35.461Z,106.70
2023-02-23T14:01:35.931Z,101.20
2023-02-23T14:04:24.163Z,103.10
2023-02-23T14:07:08.109Z,104.40
2023-02-23T14:09:51.277Z,100.70
2023-02-23T14:12:38.727Z,98.80
2023-02-23T14:15:48.536Z,97.20
2023-02-23T14:18:53.512Z,97.70
2023-02-23T14:21:39.676Z,90.80
2023-02-23T14:24:25.432Z,89.30
2023-02-23T14:27:41.841Z,89.80
2023-02-23T14:30:50.732Z,93.00
2023-02-23T14:34:00.476Z,89.60
2023-02-23T14:36:45.475Z,83.80
2023-02-23T14:39:31.494Z,94.70
2023-02-23T14:42:22.083Z,94.90
2023-02-23T14:45:00.876Z,99.20
2023-02-23T14:47:48.437Z,90.50
2023-02-23T14:50:34.095Z,88.40
2023-02-23T14:53:17.040Z,88.20
2023-02-23T14:55:53.707Z,91.20
2023-02-23T14:58:36.861Z,94.70
2023-02-23T15:01:16.090Z,88.00
2023-02-23T15:04:25.863Z,85.90
2023-02-23T15:07:04.693Z,80.40
2023-02-23T15:09:45.538Z,93.30
2023-02-23T15:12:28.678Z,83.30
2023-02-23T15:15:07.690Z,92.50
2023-02-23T15:17:49.438Z,80.20
2023-02-23T15:20:32.756Z,85.30
2023-02-23T15:23:15.191Z,84.40
2023-02-23T15:25:51.364Z,85.20
2023-02-23T15:28:35.094Z,79.40
2023-02-23T15:31:17.638Z,81.90
2023-02-23T15:33:56.067Z,77.00
2023-02-23T15:36:37.279Z,81.60
2023-02-23T15:39:18.814Z,88.60
2023-02-23T15:41:56.452Z,78.10
2023-02-23T15:44:43.806Z,75.50
2023-02-23T15:47:29.392Z,75.40
2023-02-23T15:50:31.221Z,75.70
2023-02-23T15:53:23.075Z,74.10
2023-02-23T15:56:06.813Z,76.10
2023-02-23T15:58:57.258Z,76.00
2023-02-23T16:01:36.220Z,67.10
2023-02-23T16:04:21.371Z,67.90
2023-02-23T16:07:23.702Z,68.90
2023-02-23T16:10:20.954Z,69.50
2023-02-23T16:12:59.271Z,74.80
2023-02-23T16:15:40.354Z,65.80
2023-02-23T16:18:23.492Z,68.60
2023-02-23T16:21:04.933Z,71.00
2023-02-23T16:23:51.695Z,76.10
2023-02-23T16:26:34.496Z,71.50
2023-02-23T16:29:19.022Z,75.50
2023-02-23T16:32:02.458Z,70.30
2023-02-23T16:34:51.247Z,76.10
2023-02-23T16:37:31.104Z,76.80
2023-02-23T16:40:08.174Z,72.60
2023-02-23T16:42:44.965Z,79.60
2023-02-23T16:45:24.479Z,76.70
2023-02-23T16:48:08.120Z,83.50
2023-02-23T16:50:45.936Z,79.90
2023-02-23T16:53:22.999Z,83.50
2023-02-23T16:56:03.378Z,83.60
2023-02-23T16:58:42.203Z,87.20
2023-02-23T17:01:22.218Z,88.30
2023-02-23T17:03:59.615Z,81.90
2023-02-23T17:06:36.169Z,90.60
2023-02-23T17:09:12.773Z,82.00
2023-02-23T17:11:50.241Z,76.00
2023-02-23T17:14:32.280Z,81.50
2023-02-23T17:17:09.085Z,84.90
2023-02-23T17:19:46.398Z,83.20
2023-02-23T17:22:23.296Z,80.00
2023-02-23T17:25:02.220Z,92.60
2023-02-23T17:27:38.487Z,98.60
2023-02-23T17:30:20.576Z,95.80
2023-02-23T17:32:57.231Z,85.70
2023-02-23T17:35:37.703Z,88.10
2023-02-23T17:38:16.012Z,93.00
2023-02-23T17:40:53.504Z,88.20
2023-02-23T17:43:30.146Z,89.10
2023-02-23T17:46:07.186Z,100.30
2023-02-23T17:48:44.869Z,94.40
2023-02-23T17:51:23.039Z,93.70
2023-02-23T17:54:00.166Z,96.90
2023-02-23T17:56:36.982Z,101.20
2023-02-23T17:59:14.412Z,98.10
2023-02-23T18:01:52.195Z,100.80
2023-02-23T18:04:29.990Z,97.00
2023-02-23T18:07:07.833Z,94.80
2023-02-23T18:09:44.929Z,96.50
2023-02-23T18:12:21.179Z,103.50
2023-02-23T18:14:58.831Z,100.90
2023-02-23T18:17:37.518Z,99.00
2023-02-23T18:20:21.236Z,102.10
2023-02-23T18:22:59.078Z,95.30
2023-02-23T18:25:37.157Z,97.60
2023-02-23T18:28:14.410Z,98.30
2023-02-23T18:30:51.117Z,95.30
2023-02-23T18:33:28.608Z,112.80
2023-02-23T18:36:05.987Z,103.90
2023-02-23T18:38:43.408Z,99.30
2023-02-23T18:41:21.496Z,109.30
2023-02-23T18:43:57.432Z,103.70
2023-02-23T18:46:35.240Z,102.60
2023-02-23T18:49:14.044Z,107.50
2023-02-23T18:51:50.817Z,108.40
2023-02-23T18:54:28.390Z,111.40
2023-02-23T18:57:05.871Z,107.30
2023-02-23T18:59:42.651Z,103.80
2023-02-23T19:02:19.151Z,105.70
2023-02-23T19:05:03.304Z,107.60
2023-02-23T19:07:40.488Z,111.30
2023-02-23T19:10:18.175Z,94.90
2023-02-23T19:12:53.715Z,115.80
2023-02-23T19:15:31.404Z,107.30
2023-02-23T19:18:08.353Z,109.40
2023-02-23T19:20:45.572Z,107.00
2023-02-23T19:23:23.944Z,114.00
2023-02-23T19:26:02.806Z,104.50
2023-02-23T19:28:39.828Z,109.70
2023-02-23T19:31:23.935Z,110.00
2023-02-23T19:34:05.309Z,111.50
2023-02-23T19:36:42.690Z,116.50
2023-02-23T19:39:20.229Z,108.30
2023-02-23T19:41:56.947Z,112.50
2023-02-23T19:44:32.455Z,109.80
2023-02-23T19:47:10.060Z,107.50
2023-02-23T19:49:46.503Z,94.20
2023-02-23T19:52:24.897Z,107.10
2023-02-23T19:55:01.546Z,103.10
2023-02-23T19:57:39.124Z,109.10
2023-02-23T20:00:22.795Z,103.60
2023-02-23T20:03:06.337Z,109.50
2023-02-23T20:05:46.704Z,104.60
2023-02-23T20:08:23.188Z,107.20
2023-02-23T20:11:00.650Z,108.00
2023-02-23T20:13:39.098Z,105.50
2023-02-23T20:16:19.093Z,106.30
2023-02-23T20:18:55.982Z,110.50
2023-02-23T20:21:34.270Z,108.60
2023-02-23T20:24:13.288Z,104.30
2023-02-23T20:26:53.147Z,100.60
2023-02-23T20:29:29.916Z,105.30
2023-02-23T20:32:08.066Z,98.30
2023-02-23T20:34:48.133Z,94.30
2023-02-23T20:37:24.686Z,87.50
2023-02-23T20:40:01.915Z,86.60
2023-02-23T20:42:40.590Z,110.50
2023-02-23T20:45:21.204Z,103.90
2023-02-23T20:47:58.144Z,96.50
2023-02-23T20:50:35.332Z,98.40
2023-02-23T20:53:12.474Z,99.40
2023-02-23T20:55:49.490Z,98.80
2023-02-23T20:58:28.744Z,97.30
2023-02-23T21:01:07.699Z,92.60
2023-02-23T21:03:44.281Z,89.80
2023-02-23T21:06:21.591Z,96.30
2023-02-23T21:09:03.822Z,93.40
2023-02-23T21:11:41.314Z,98.10
2023-02-23T21:14:18.389Z,92.20
2023-02-23T21:16:56.898Z,94.80
2023-02-23T21:19:33.766Z,85.10
2023-02-23T21:22:10.840Z,87.60
2023-02-23T21:24:47.038Z,88.30
2023-02-23T21:27:24.754Z,85.30
2023-02-23T21:30:01.222Z,82.60
2023-02-23T21:32:43.671Z,90.20
2023-02-23T21:35:20.875Z,94.00
2023-02-23T21:37:57.350Z,94.30
2023-02-23T21:40:33.994Z,86.00
2023-02-23T21:43:10.220Z,90.20
2023-02-23T21:45:48.183Z,83.40
2023-02-23T21:48:26.065Z,86.30
2023-02-23T21:51:10.426Z,83.50
2023-02-23T21:53:48.019Z,80.00
2023-02-23T21:56:25.544Z,79.40
2023-02-23T21:59:04.446Z,82.40
2023-02-23T22:01:43.320Z,72.90
2023-02-23T22:04:22.484Z,81.90
2023-02-23T22:07:00.004Z,85.90
2023-02-23T22:09:36.963Z,80.30
2023-02-23T22:12:15.207Z,76.80
2023-02-23T22:14:52.220Z,81.60
2023-02-23T22:17:28.869Z,68.20
2023-02-23T22:20:07.471Z,81.00
2023-02-23T22:22:44.523Z,79.00
2023-02-23T22:25:23.710Z,75.60
2023-02-23T22:28:00.752Z,68.90
2023-02-23T22:30:38.329Z,80.20
2023-02-23T22:33:14.972Z,80.50
2023-02-23T22:35:51.025Z,79.10
2023-02-23T22:38:27.960Z,75.90
2023-02-23T22:41:08.642Z,79.70
2023-02-23T22:43:48.009Z,77.50
2023-02-23T22:46:26.173Z,74.20
2023-02-23T22:49:03.241Z,80.20
2023-02-23T22:51:41.518Z,77.50
2023-02-23T22:54:20.762Z,77.20
2023-02-23T22:56:58.211Z,75.30
2023-02-23T22:59:35.526Z,85.40
2023-02-23T23:02:13.041Z,84.00
2023-02-23T23:04:50.558Z,84.50
2023-02-23T23:07:28.597Z,82.60
2023-02-23T23:10:05.942Z,76.00
2023-02-23T23:12:43.111Z,82.70
2023-02-23T23:15:22.614Z,79.00
2023-02-23T23:18:00.229Z,73.80
2023-02-23T23:20:37.900Z,84.80
2023-02-23T23:23:15.097Z,89.00
2023-02-23T23:25:55.685Z,86.10
2023-02-23T23:28:32.559Z,86.00
2023-02-23T23:31:12.835Z,86.70
2023-02-23T23:33:50.463Z,86.00
2023-02-23T23:36:29.312Z,84.50
2023-02-23T23:39:12.158Z,78.70
2023-02-23T23:41:50.394Z,86.60
2023-02-23T23:44:30.104Z,81.00
2023-02-23T23:47:08.262Z,82.60
2023-02-23T23:49:45.726Z,87.10
2023-02-23T23:52:23.080Z,92.70
2023-02-23T23:55:03.943Z,81.30
2023-02-23T23:57:41.416Z,85.00
